Time;durP1;ratioP1;P1;durP2;ratioP2;P2;SDS_P1;SDS_P2;PMS_P1;PMS_P2;Temp;Humidity;BMP_temperature;BMP_pressure;BME280_temperature;BME280_humidity;BME280_pressure;Samples;Min_cycle;Max_cycle;Signal;HPM_P1;HPM_P2
2022/10/07 00:00:14;;;;;;;;;;;10.20;79.50;;;;;;5052246;28;19978;-84
2022/10/07 00:02:40;;;;;;;;;;;10.30;79.00;;;;;;5047488;28;20010;-84
2022/10/07 00:05:05;;;;;;;;;;;10.30;78.70;;;;;;5046577;28;19913;-84
2022/10/07 00:07:31;;;;;;;;;;;10.20;78.80;;;;;;5050714;28;19920;-84
2022/10/07 00:09:56;;;;;;;;;;;10.20;79.00;;;;;;5049885;28;19916;-84
2022/10/07 00:12:22;;;;;;;;;;;10.20;78.70;;;;;;5051641;28;19966;-85
2022/10/07 00:14:47;;;;;;;;;;;10.20;79.00;;;;;;5051037;28;19954;-83
2022/10/07 00:17:13;;;;;;;;;;;10.30;78.60;;;;;;5052280;28;19936;-85
2022/10/07 00:19:38;;;;;;;;;;;10.30;79.40;;;;;;5052001;28;19913;-84
2022/10/07 00:22:04;;;;;;;;;;;10.30;79.50;;;;;;5051906;28;19909;-84
2022/10/07 00:24:29;;;;;;;;;;;10.20;80.00;;;;;;5067196;28;19917;-85
2022/10/07 00:26:54;;;;;;;;;;;10.20;79.60;;;;;;5070613;28;19920;-86
2022/10/07 00:29:20;;;;;;;;;;;10.20;79.00;;;;;;5062844;28;19971;-85
2022/10/07 00:31:45;;;;;;;;;;;10.20;79.70;;;;;;5062909;28;19913;-85
2022/10/07 00:34:11;;;;;;;;;;;10.20;80.10;;;;;;5061415;28;20286;-85
2022/10/07 00:36:37;;;;;;;;;;;10.30;79.60;;;;;;5055652;28;19908;-85
2022/10/07 00:39:04;;;;;;;;;;;10.20;79.20;;;;;;5060421;28;19908;-85
2022/10/07 00:41:34;;;;;;;;;;;10.20;79.60;;;;;;5059151;28;19920;-84
2022/10/07 00:44:20;;;;;;;;;;;10.10;79.80;;;;;;5057490;28;19960;-84
2022/10/07 00:46:46;;;;;;;;;;;10.10;79.70;;;;;;5057510;28;19921;-85
2022/10/07 00:49:12;;;;;;;;;;;10.10;80.10;;;;;;5056031;28;19920;-84
2022/10/07 00:51:38;;;;;;;;;;;10.10;80.20;;;;;;5056681;28;19915;-84
2022/10/07 00:54:06;;;;;;;;;;;10.10;80.00;;;;;;5055093;28;19921;-84
2022/10/07 00:56:32;;;;;;;;;;;10.10;79.80;;;;;;5057352;28;19955;-84
2022/10/07 00:58:58;;;;;;;;;;;10.00;80.20;;;;;;5057105;28;20298;-86
2022/10/07 01:01:24;;;;;;;;;;;10.20;79.70;;;;;;5054736;28;20008;-85
2022/10/07 01:03:50;;;;;;;;;;;10.20;79.50;;;;;;5051200;28;20023;-85
2022/10/07 01:06:16;;;;;;;;;;;10.20;78.90;;;;;;5053776;28;19913;-84
2022/10/07 01:08:42;;;;;;;;;;;10.20;78.60;;;;;;5048173;28;19909;-85
2022/10/07 01:11:12;;;;;;;;;;;10.00;78.80;;;;;;5052671;28;19916;-84
2022/10/07 01:13:58;;;;;;;;;;;10.10;79.50;;;;;;5052526;28;19908;-85
2022/10/07 01:16:29;;;;;;;;;;;10.10;79.40;;;;;;5051560;28;20455;-85
2022/10/07 01:19:18;;;;;;;;;;;10.20;79.20;;;;;;5046894;28;20354;-84
2022/10/07 01:22:02;;;;;;;;;;;10.10;79.20;;;;;;5049588;28;19966;-84
2022/10/07 01:24:40;;;;;;;;;;;10.10;79.20;;;;;;5051791;28;19916;-84
2022/10/07 01:27:12;;;;;;;;;;;10.20;79.30;;;;;;5049821;28;19917;-85
2022/10/07 01:29:40;;;;;;;;;;;10.30;79.20;;;;;;5031587;28;20008;-85
2022/10/07 01:32:10;;;;;;;;;;;10.10;79.60;;;;;;5047560;28;19913;-84
2022/10/07 01:34:37;;;;;;;;;;;10.20;79.60;;;;;;5052248;28;19920;-84
2022/10/07 01:37:05;;;;;;;;;;;10.10;79.30;;;;;;5049906;28;19915;-84
2022/10/07 01:39:33;;;;;;;;;;;10.10;79.70;;;;;;5049469;28;20298;-84
2022/10/07 01:41:58;;;;;;;;;;;10.10;79.90;;;;;;5051010;28;19962;-84
2022/10/07 01:44:26;;;;;;;;;;;10.20;79.10;;;;;;5050615;28;19909;-84
2022/10/07 01:46:52;;;;;;;;;;;10.20;79.30;;;;;;5049743;28;19917;-84
2022/10/07 01:49:17;;;;;;;;;;;10.10;79.30;;;;;;5062214;28;19935;-85
2022/10/07 01:51:46;;;;;;;;;;;10.10;79.10;;;;;;5066052;28;19976;-85
2022/10/07 01:54:17;;;;;;;;;;;10.10;78.90;;;;;;5060957;28;19996;-85
2022/10/07 01:56:59;;;;;;;;;;;10.10;78.50;;;;;;5060184;28;19909;-85
2022/10/07 01:59:43;;;;;;;;;;;10.10;78.60;;;;;;5060122;28;19908;-84
2022/10/07 02:02:20;;;;;;;;;;;10.10;78.90;;;;;;5058844;28;19916;-85
2022/10/07 02:04:58;;;;;;;;;;;10.10;79.40;;;;;;5056824;28;20676;-85
2022/10/07 02:07:34;;;;;;;;;;;10.00;79.70;;;;;;5059657;28;19911;-85
2022/10/07 02:10:11;;;;;;;;;;;10.00;79.40;;;;;;5059475;28;20012;-84
2022/10/07 02:12:39;;;;;;;;;;;10.00;79.70;;;;;;5058440;28;19916;-84
2022/10/07 02:15:09;;;;;;;;;;;10.00;79.50;;;;;;5058352;28;19913;-85
2022/10/07 02:17:36;;;;;;;;;;;10.00;79.50;;;;;;5052412;28;19970;-84
2022/10/07 02:20:03;;;;;;;;;;;10.00;79.30;;;;;;5049560;28;19915;-84
2022/10/07 02:22:30;;;;;;;;;;;9.90;79.60;;;;;;5049177;28;19916;-85
2022/10/07 02:24:58;;;;;;;;;;;9.90;79.70;;;;;;5050806;28;19913;-86
2022/10/07 02:27:27;;;;;;;;;;;9.90;80.00;;;;;;5049289;28;19913;-85
2022/10/07 02:29:56;;;;;;;;;;;9.90;80.40;;;;;;5052271;28;19955;-84
2022/10/07 02:32:22;;;;;;;;;;;9.90;80.60;;;;;;5052588;28;19913;-84
2022/10/07 02:34:50;;;;;;;;;;;9.90;80.50;;;;;;5055036;28;20331;-84
2022/10/07 02:37:23;;;;;;;;;;;9.90;80.40;;;;;;5054412;28;19966;-84
2022/10/07 02:39:48;;;;;;;;;;;10.00;79.60;;;;;;5053564;28;20407;-85
2022/10/07 02:42:14;;;;;;;;;;;10.00;78.90;;;;;;5050917;28;19959;-85
2022/10/07 02:44:47;;;;;;;;;;;9.90;78.80;;;;;;5052886;28;20002;-84
2022/10/07 02:47:18;;;;;;;;;;;9.90;78.80;;;;;;5052537;28;19924;-85
2022/10/07 02:49:47;;;;;;;;;;;9.90;78.70;;;;;;5052089;28;19980;-85
2022/10/07 02:52:14;;;;;;;;;;;9.90;78.70;;;;;;5053053;28;19908;-84
2022/10/07 02:54:42;;;;;;;;;;;10.00;79.00;;;;;;5053655;28;19908;-84
2022/10/07 02:57:09;;;;;;;;;;;10.00;78.60;;;;;;5052051;28;19987;-84
2022/10/07 02:59:36;;;;;;;;;;;9.90;79.10;;;;;;5052637;28;20255;-85
2022/10/07 03:02:04;;;;;;;;;;;9.90;78.80;;;;;;5051858;28;19912;-84
2022/10/07 03:04:30;;;;;;;;;;;9.90;78.70;;;;;;5054389;28;19948;-84
2022/10/07 03:06:57;;;;;;;;;;;9.90;78.60;;;;;;5052447;28;19959;-84
2022/10/07 03:09:23;;;;;;;;;;;9.90;78.70;;;;;;5052187;28;19948;-85
2022/10/07 03:11:49;;;;;;;;;;;9.90;79.40;;;;;;5055726;28;19917;-85
2022/10/07 03:14:14;;;;;;;;;;;9.80;79.70;;;;;;5075426;28;19913;-86
2022/10/07 03:16:40;;;;;;;;;;;9.80;79.10;;;;;;5064275;28;19920;-84
2022/10/07 03:19:05;;;;;;;;;;;9.80;79.00;;;;;;5063144;28;19912;-87
2022/10/07 03:21:32;;;;;;;;;;;9.80;79.30;;;;;;5061458;28;19912;-85
2022/10/07 03:24:03;;;;;;;;;;;9.80;79.90;;;;;;5062768;28;19909;-85
2022/10/07 03:26:32;;;;;;;;;;;9.80;79.80;;;;;;5058848;28;19991;-85
2022/10/07 03:28:59;;;;;;;;;;;9.80;79.20;;;;;;5057782;28;20255;-86
2022/10/07 03:31:25;;;;;;;;;;;9.80;79.40;;;;;;5059125;28;19912;-86
2022/10/07 03:33:50;;;;;;;;;;;9.90;78.80;;;;;;5057923;28;20058;-85
2022/10/07 03:36:16;;;;;;;;;;;9.90;78.70;;;;;;5057003;28;19940;-84
2022/10/07 03:38:41;;;;;;;;;;;9.80;78.90;;;;;;5055256;28;19905;-85
2022/10/07 03:41:07;;;;;;;;;;;9.80;79.20;;;;;;5055166;28;20432;-85
2022/10/07 03:43:33;;;;;;;;;;;9.80;78.70;;;;;;5057571;28;19915;-85
2022/10/07 03:45:59;;;;;;;;;;;9.80;78.90;;;;;;5056774;28;20395;-84
2022/10/07 03:48:24;;;;;;;;;;;9.80;79.10;;;;;;5054764;28;19921;-84
2022/10/07 03:50:51;;;;;;;;;;;9.80;79.10;;;;;;5055589;28;19912;-85
2022/10/07 03:53:17;;;;;;;;;;;9.80;79.50;;;;;;5054800;28;20355;-84
2022/10/07 03:55:42;;;;;;;;;;;9.80;79.70;;;;;;5052773;28;19962;-85
2022/10/07 03:58:08;;;;;;;;;;;9.80;79.20;;;;;;5052777;28;20280;-84
2022/10/07 04:00:33;;;;;;;;;;;9.80;79.30;;;;;;5053074;28;19908;-85
2022/10/07 04:02:59;;;;;;;;;;;9.80;79.00;;;;;;5052751;28;20427;-85
2022/10/07 04:05:24;;;;;;;;;;;9.80;78.80;;;;;;5052766;28;20378;-85
2022/10/07 04:07:51;;;;;;;;;;;9.80;79.50;;;;;;5068350;28;20364;-84
2022/10/07 04:10:17;;;;;;;;;;;9.90;79.40;;;;;;5050782;28;19947;-84
2022/10/07 04:12:43;;;;;;;;;;;9.90;78.60;;;;;;5053272;28;19919;-84
2022/10/07 04:15:12;;;;;;;;;;;9.90;78.20;;;;;;5052274;28;19909;-84
2022/10/07 04:17:41;;;;;;;;;;;9.90;78.20;;;;;;5053437;28;20337;-84
2022/10/07 04:20:07;;;;;;;;;;;9.80;78.70;;;;;;5050843;28;19948;-85
2022/10/07 04:22:32;;;;;;;;;;;9.90;78.90;;;;;;5067383;28;19974;-84
2022/10/07 04:27:42;;;;;;;;;;;9.90;78.50;;;;;;5051737;28;19959;-84
2022/10/07 04:30:08;;;;;;;;;;;9.90;78.60;;;;;;5050618;28;19909;-85
2022/10/07 04:32:35;;;;;;;;;;;9.90;78.60;;;;;;5050985;28;19916;-84
2022/10/07 04:35:02;;;;;;;;;;;9.80;78.80;;;;;;5050586;28;20396;-85
2022/10/07 04:37:28;;;;;;;;;;;9.80;78.80;;;;;;5071190;28;19970;-86
2022/10/07 04:39:54;;;;;;;;;;;9.90;78.40;;;;;;5065548;28;19919;-85
2022/10/07 04:45:04;;;;;;;;;;;9.80;78.10;;;;;;5063249;28;19935;-85
2022/10/07 04:47:30;;;;;;;;;;;9.80;78.30;;;;;;5077694;23;19928;-85
2022/10/07 04:49:55;;;;;;;;;;;9.90;78.00;;;;;;5060255;28;19919;-85
2022/10/07 04:52:21;;;;;;;;;;;9.80;78.60;;;;;;5071997;28;20214;-85
2022/10/07 04:54:46;;;;;;;;;;;9.70;79.30;;;;;;5064157;28;19908;-85
2022/10/07 04:57:15;;;;;;;;;;;9.70;79.10;;;;;;5067158;28;20002;-85
2022/10/07 04:59:40;;;;;;;;;;;9.70;78.90;;;;;;5070716;28;19923;-86
2022/10/07 05:02:06;;;;;;;;;;;9.70;79.20;;;;;;5062638;28;19912;-85
2022/10/07 05:04:31;;;;;;;;;;;9.70;79.20;;;;;;5073338;28;19908;-86
2022/10/07 05:06:56;;;;;;;;;;;9.70;79.60;;;;;;5070578;28;19924;-86
2022/10/07 05:09:22;;;;;;;;;;;9.80;79.40;;;;;;5077782;28;19912;-85
2022/10/07 05:11:50;;;;;;;;;;;9.70;79.30;;;;;;5065246;28;19919;-85
2022/10/07 05:14:20;;;;;;;;;;;9.60;79.80;;;;;;5062191;28;20390;-86
2022/10/07 05:16:46;;;;;;;;;;;9.60;80.00;;;;;;5049556;28;20003;-86
2022/10/07 05:19:11;;;;;;;;;;;9.60;80.00;;;;;;5049048;28;19952;-85
2022/10/07 05:21:37;;;;;;;;;;;9.50;80.30;;;;;;5060727;28;19961;-86
2022/10/07 05:24:02;;;;;;;;;;;9.60;80.10;;;;;;5071263;28;20309;-85
2022/10/07 05:26:28;;;;;;;;;;;9.50;80.30;;;;;;5070256;28;20293;-86
2022/10/07 05:28:53;;;;;;;;;;;9.50;80.20;;;;;;5071676;28;20333;-86
2022/10/07 05:31:19;;;;;;;;;;;9.50;80.10;;;;;;5072622;28;20327;-86
2022/10/07 05:33:45;;;;;;;;;;;9.50;80.40;;;;;;5073950;28;19908;-86
2022/10/07 05:36:11;;;;;;;;;;;9.60;80.20;;;;;;5071591;28;19919;-86
2022/10/07 05:38:36;;;;;;;;;;;9.50;80.10;;;;;;5074019;28;20266;-86
2022/10/07 05:41:03;;;;;;;;;;;9.50;80.50;;;;;;5072134;28;19908;-85
2022/10/07 05:43:29;;;;;;;;;;;9.50;80.40;;;;;;5070947;28;19909;-86
2022/10/07 05:46:02;;;;;;;;;;;9.50;80.20;;;;;;5072415;28;19939;-85
2022/10/07 05:48:29;;;;;;;;;;;9.50;79.80;;;;;;5071450;28;19917;-86
2022/10/07 05:50:56;;;;;;;;;;;9.50;79.90;;;;;;5073699;28;20382;-85
2022/10/07 05:53:21;;;;;;;;;;;9.50;80.20;;;;;;5075059;28;19926;-86
2022/10/07 05:55:47;;;;;;;;;;;9.50;80.10;;;;;;5080509;28;19976;-86
2022/10/07 05:58:13;;;;;;;;;;;9.50;80.00;;;;;;5079930;28;20377;-86
2022/10/07 06:00:41;;;;;;;;;;;9.50;79.60;;;;;;5077832;28;20294;-86
2022/10/07 06:03:07;;;;;;;;;;;9.50;79.70;;;;;;5074888;28;19932;-86
2022/10/07 06:05:32;;;;;;;;;;;9.60;79.60;;;;;;5073667;28;20283;-86
2022/10/07 06:07:57;;;;;;;;;;;9.60;79.30;;;;;;5073821;28;19944;-84
2022/10/07 06:13:07;;;;;;;;;;;9.60;79.90;;;;;;5081511;28;20300;-84
2022/10/07 06:15:33;;;;;;;;;;;9.70;79.00;;;;;;5080311;28;20003;-83
2022/10/07 06:17:59;;;;;;;;;;;9.70;78.70;;;;;;5072449;28;19935;-85
2022/10/07 06:20:24;;;;;;;;;;;9.70;79.10;;;;;;5072784;28;20405;-85
2022/10/07 06:22:54;;;;;;;;;;;9.70;78.90;;;;;;5069120;28;19909;-87
2022/10/07 06:25:19;;;;;;;;;;;9.80;78.90;;;;;;5068286;28;19919;-89
2022/10/07 06:27:45;;;;;;;;;;;9.90;78.20;;;;;;5064536;28;19913;-87
2022/10/07 06:30:11;;;;;;;;;;;9.90;77.70;;;;;;5072945;28;19909;-87
2022/10/07 06:32:37;;;;;;;;;;;9.90;77.50;;;;;;5073578;28;19955;-88
2022/10/07 06:35:03;;;;;;;;;;;9.90;77.50;;;;;;5072887;28;19913;-87
2022/10/07 06:37:29;;;;;;;;;;;10.00;77.40;;;;;;5072660;28;20362;-87
2022/10/07 06:39:55;;;;;;;;;;;10.00;77.30;;;;;;5072483;28;19908;-88
2022/10/07 06:42:21;;;;;;;;;;;10.00;77.50;;;;;;5072444;28;19916;-87
2022/10/07 06:44:46;;;;;;;;;;;10.00;77.60;;;;;;5073137;28;19915;-87
2022/10/07 06:47:12;;;;;;;;;;;10.00;77.60;;;;;;5073834;28;20007;-88
2022/10/07 06:49:37;;;;;;;;;;;10.10;77.60;;;;;;5072437;28;20447;-88
2022/10/07 06:52:03;;;;;;;;;;;10.10;77.80;;;;;;5072810;28;19951;-88
2022/10/07 06:54:28;;;;;;;;;;;10.10;78.10;;;;;;5073867;28;19920;-87
2022/10/07 06:56:54;;;;;;;;;;;10.20;77.70;;;;;;5071987;28;19932;-88
2022/10/07 06:59:19;;;;;;;;;;;10.30;78.00;;;;;;5072909;28;19932;-88
2022/10/07 07:01:45;;;;;;;;;;;10.30;78.10;;;;;;5073078;28;20324;-87
2022/10/07 07:04:10;;;;;;;;;;;10.40;78.20;;;;;;5072603;28;19909;-87
2022/10/07 07:06:36;;;;;;;;;;;10.40;77.90;;;;;;5072038;28;19919;-87
2022/10/07 07:09:04;;;;;;;;;;;10.60;78.10;;;;;;5071647;28;19999;-88
2022/10/07 07:11:36;;;;;;;;;;;10.60;77.70;;;;;;5071302;28;19909;-88
2022/10/07 07:14:02;;;;;;;;;;;10.60;77.40;;;;;;5072637;28;19912;-87
2022/10/07 07:16:28;;;;;;;;;;;10.60;77.00;;;;;;5072118;28;20326;-87
2022/10/07 07:18:54;;;;;;;;;;;10.60;76.80;;;;;;5071519;28;19959;-87
2022/10/07 07:21:20;;;;;;;;;;;10.70;77.00;;;;;;5072155;28;20003;-87
2022/10/07 07:23:46;;;;;;;;;;;10.80;76.90;;;;;;5071770;28;19952;-87
2022/10/07 07:26:11;;;;;;;;;;;10.90;76.30;;;;;;5071476;28;20000;-87
2022/10/07 07:28:38;;;;;;;;;;;10.90;76.90;;;;;;5077813;28;19912;-88
2022/10/07 07:31:08;;;;;;;;;;;11.00;77.30;;;;;;5089363;28;19913;-87
2022/10/07 07:33:36;;;;;;;;;;;11.10;77.00;;;;;;5071856;28;20397;-87
2022/10/07 07:36:07;;;;;;;;;;;11.20;76.40;;;;;;5071386;28;20014;-87
2022/10/07 07:38:32;;;;;;;;;;;11.20;76.80;;;;;;5071527;28;19996;-87
2022/10/07 07:41:03;;;;;;;;;;;11.30;77.30;;;;;;5072237;28;19997;-87
2022/10/07 07:43:28;;;;;;;;;;;11.40;76.70;;;;;;5072224;28;19987;-86
2022/10/07 07:45:56;;;;;;;;;;;11.40;76.50;;;;;;5066582;28;20492;-87
2022/10/07 07:48:22;;;;;;;;;;;11.50;75.70;;;;;;5069662;28;20389;-86
2022/10/07 07:50:47;;;;;;;;;;;11.50;75.70;;;;;;5070337;28;19912;-86
2022/10/07 07:53:13;;;;;;;;;;;11.50;76.10;;;;;;5067370;28;19909;-85
2022/10/07 07:55:38;;;;;;;;;;;11.60;75.90;;;;;;5062454;28;19916;-83
2022/10/07 07:58:03;;;;;;;;;;;11.60;75.50;;;;;;5065241;28;19915;-83
2022/10/07 08:00:29;;;;;;;;;;;11.60;75.90;;;;;;5069437;28;19908;-84
2022/10/07 08:02:54;;;;;;;;;;;11.70;76.10;;;;;;5067637;28;19913;-86
2022/10/07 08:05:20;;;;;;;;;;;11.90;75.40;;;;;;5069650;28;19935;-86
2022/10/07 08:07:45;;;;;;;;;;;12.00;74.90;;;;;;5064150;28;20317;-83
2022/10/07 08:10:11;;;;;;;;;;;12.20;74.60;;;;;;5062220;28;20278;-88
2022/10/07 08:12:36;;;;;;;;;;;12.40;73.70;;;;;;5071092;28;19909;-88
2022/10/07 08:15:02;;;;;;;;;;;12.40;73.40;;;;;;5070030;28;20340;-86
2022/10/07 08:17:27;;;;;;;;;;;12.50;73.60;;;;;;5061828;28;19917;-86
2022/10/07 08:20:00;;;;;;;;;;;12.50;72.90;;;;;;5010959;28;20058;-86
2022/10/07 08:22:25;;;;;;;;;;;12.60;72.90;;;;;;5054727;28;19913;-86
2022/10/07 08:24:51;;;;;;;;;;;12.50;73.20;;;;;;5063902;28;20450;-86
2022/10/07 08:27:17;;;;;;;;;;;12.60;72.90;;;;;;5066081;28;20374;-86
2022/10/07 08:29:43;;;;;;;;;;;12.60;73.00;;;;;;5062907;28;20325;-86
2022/10/07 08:32:08;;;;;;;;;;;12.70;73.30;;;;;;5066026;28;19916;-86
2022/10/07 08:34:35;;;;;;;;;;;12.70;72.90;;;;;;5060736;28;19921;-86
2022/10/07 08:37:00;;;;;;;;;;;12.80;73.10;;;;;;5069659;28;20354;-86
2022/10/07 08:39:28;;;;;;;;;;;13.00;72.40;;;;;;5068966;28;19958;-87
2022/10/07 08:42:14;;;;;;;;;;;13.20;71.40;;;;;;5064970;28;19913;-85
2022/10/07 08:44:44;;;;;;;;;;;13.30;71.60;;;;;;5059302;28;19908;-86
2022/10/07 08:47:15;;;;;;;;;;;13.40;71.40;;;;;;5071776;28;19995;-85
2022/10/07 08:49:55;;;;;;;;;;;13.40;71.50;;;;;;5070116;28;19966;-85
2022/10/07 08:52:20;;;;;;;;;;;13.60;71.10;;;;;;5071986;28;19913;-86
2022/10/07 08:54:46;;;;;;;;;;;13.70;70.70;;;;;;5070660;28;20004;-85
2022/10/07 08:57:15;;;;;;;;;;;13.80;70.30;;;;;;5060694;28;19928;-86
2022/10/07 08:59:45;;;;;;;;;;;14.00;70.40;;;;;;5062187;28;20374;-85
2022/10/07 09:02:11;;;;;;;;;;;13.90;70.40;;;;;;5062620;28;20016;-87
2022/10/07 09:04:52;;;;;;;;;;;14.00;69.80;;;;;;5070172;28;20011;-86
2022/10/07 09:07:21;;;;;;;;;;;14.00;69.60;;;;;;5067352;28;19942;-87
2022/10/07 09:09:59;;;;;;;;;;;14.10;69.60;;;;;;5079641;28;19928;-85
2022/10/07 09:12:29;;;;;;;;;;;14.20;69.40;;;;;;5064280;28;19959;-85
2022/10/07 09:14:56;;;;;;;;;;;14.20;69.50;;;;;;5073784;28;19912;-86
2022/10/07 09:17:27;;;;;;;;;;;14.10;69.10;;;;;;5066534;28;19923;-85
2022/10/07 09:19:55;;;;;;;;;;;14.20;70.10;;;;;;5062150;28;19919;-85
2022/10/07 09:22:29;;;;;;;;;;;14.20;68.50;;;;;;5070571;28;19912;-86
2022/10/07 09:24:58;;;;;;;;;;;14.30;69.40;;;;;;5064428;28;20419;-86
2022/10/07 09:27:25;;;;;;;;;;;14.40;68.40;;;;;;5068783;28;19917;-86
2022/10/07 09:29:51;;;;;;;;;;;14.40;68.50;;;;;;5060447;28;19938;-86
2022/10/07 09:32:17;;;;;;;;;;;14.50;68.00;;;;;;5066919;28;19931;-86
2022/10/07 09:34:43;;;;;;;;;;;14.60;67.30;;;;;;5058459;28;20421;-86
2022/10/07 09:37:14;;;;;;;;;;;14.60;66.70;;;;;;5059650;28;19934;-86
2022/10/07 09:39:40;;;;;;;;;;;14.60;67.20;;;;;;5057481;28;19915;-86
2022/10/07 09:42:07;;;;;;;;;;;14.70;67.60;;;;;;5072652;28;20313;-86
2022/10/07 09:44:33;;;;;;;;;;;14.80;67.40;;;;;;5066394;28;19917;-86
2022/10/07 09:47:10;;;;;;;;;;;15.00;66.50;;;;;;5075883;28;19921;-87
2022/10/07 09:49:39;;;;;;;;;;;15.00;66.50;;;;;;5073197;28;19917;-86
2022/10/07 09:52:20;;;;;;;;;;;15.00;65.60;;;;;;5073725;28;20437;-86
2022/10/07 09:54:47;;;;;;;;;;;15.00;65.40;;;;;;5073315;28;19951;-88
2022/10/07 09:57:21;;;;;;;;;;;15.00;66.00;;;;;;5068552;28;19916;-86
2022/10/07 09:59:46;;;;;;;;;;;15.10;66.10;;;;;;5054529;28;19909;-87
2022/10/07 10:02:12;;;;;;;;;;;15.10;65.80;;;;;;5069617;28;19917;-86
2022/10/07 10:04:45;;;;;;;;;;;15.20;65.60;;;;;;5070671;28;19909;-87
2022/10/07 10:07:18;;;;;;;;;;;15.30;64.70;;;;;;5072113;28;19920;-87
2022/10/07 10:09:47;;;;;;;;;;;15.30;64.80;;;;;;5063678;28;20393;-88
2022/10/07 10:12:14;;;;;;;;;;;15.30;64.60;;;;;;5058385;28;19982;-86
2022/10/07 10:14:42;;;;;;;;;;;15.30;63.90;;;;;;5068488;28;19908;-85
2022/10/07 10:17:26;;;;;;;;;;;15.40;63.80;;;;;;5067136;28;19917;-86
2022/10/07 10:19:52;;;;;;;;;;;15.50;63.30;;;;;;5073822;28;19962;-86
2022/10/07 10:22:30;;;;;;;;;;;15.50;64.30;;;;;;5069700;28;19909;-86
2022/10/07 10:28:09;;;;;;;;;;;15.60;63.90;;;;;;5075913;28;19919;-85
2022/10/07 10:30:40;;;;;;;;;;;15.70;63.60;;;;;;5062054;28;20366;-86
2022/10/07 10:33:30;;;;;;;;;;;15.70;62.70;;;;;;5075305;28;19912;-86
2022/10/07 10:36:08;;;;;;;;;;;15.70;62.50;;;;;;5053793;28;19948;-86
2022/10/07 10:38:52;;;;;;;;;;;15.70;62.80;;;;;;5068248;28;20362;-86
2022/10/07 10:41:30;;;;;;;;;;;15.90;62.70;;;;;;5066007;28;19912;-86
2022/10/07 10:44:14;;;;;;;;;;;15.90;62.70;;;;;;5071538;28;20293;-85
2022/10/07 10:46:47;;;;;;;;;;;16.00;62.50;;;;;;5083185;28;19916;-87
2022/10/07 10:49:12;;;;;;;;;;;16.00;61.40;;;;;;4665011;22;20370;-82
2022/10/07 10:51:56;;;;;;;;;;;15.90;61.60;;;;;;5074966;28;19921;-81
2022/10/07 10:54:25;;;;;;;;;;;16.00;61.90;;;;;;5068683;28;19917;-82
2022/10/07 10:56:59;;;;;;;;;;;16.00;62.40;;;;;;5043567;28;20547;-82
2022/10/07 10:59:46;;;;;;;;;;;16.00;62.00;;;;;;5045907;28;19971;-82
2022/10/07 11:02:14;;;;;;;;;;;15.80;61.80;;;;;;5034746;28;19948;-82
2022/10/07 11:04:53;;;;;;;;;;;15.80;62.20;;;;;;5027384;28;19921;-82
2022/10/07 11:07:30;;;;;;;;;;;15.90;62.00;;;;;;5036420;28;19918;-82
2022/10/07 11:10:02;;;;;;;;;;;15.90;62.30;;;;;;5056341;28;19924;-82
2022/10/07 11:12:30;;;;;;;;;;;16.10;62.60;;;;;;5033802;28;19921;-82
2022/10/07 11:15:00;;;;;;;;;;;16.10;61.30;;;;;;5036066;28;19929;-82
2022/10/07 11:17:30;;;;;;;;;;;16.20;61.30;;;;;;5033870;28;19913;-81
2022/10/07 11:20:04;;;;;;;;;;;16.30;60.50;;;;;;5030591;28;19924;-82
2022/10/07 11:22:34;;;;;;;;;;;16.20;60.10;;;;;;5034694;28;20373;-81
2022/10/07 11:25:06;;;;;;;;;;;16.10;60.20;;;;;;5033599;28;20291;-81
2022/10/07 11:27:33;;;;;;;;;;;16.20;60.20;;;;;;5031348;28;20915;-82
2022/10/07 11:30:01;;;;;;;;;;;16.20;61.40;;;;;;5032639;28;19910;-82
2022/10/07 11:32:29;;;;;;;;;;;16.40;59.90;;;;;;5034362;28;19940;-81
2022/10/07 11:34:57;;;;;;;;;;;16.40;60.40;;;;;;5030108;28;20356;-82
2022/10/07 11:37:46;;;;;;;;;;;16.40;59.90;;;;;;5034850;28;19915;-82
2022/10/07 11:40:12;;;;;;;;;;;16.20;60.50;;;;;;4999961;28;19938;-81
2022/10/07 11:42:41;;;;;;;;;;;16.40;60.00;;;;;;5031891;28;19916;-81
2022/10/07 11:45:09;;;;;;;;;;;16.40;60.10;;;;;;5065114;28;19913;-83
2022/10/07 11:47:40;;;;;;;;;;;16.60;59.20;;;;;;5058939;28;19925;-82
2022/10/07 11:50:14;;;;;;;;;;;16.70;59.20;;;;;;5069017;28;20405;-82
2022/10/07 11:52:42;;;;;;;;;;;16.60;59.40;;;;;;5035773;28;19909;-82
2022/10/07 11:55:09;;;;;;;;;;;16.50;59.20;;;;;;5034437;28;19910;-82
2022/10/07 11:57:37;;;;;;;;;;;16.50;59.30;;;;;;5033904;28;19967;-82
2022/10/07 12:00:14;;;;;;;;;;;16.60;59.60;;;;;;5033279;28;19927;-83
2022/10/07 12:02:41;;;;;;;;;;;16.60;58.30;;;;;;5056213;28;19920;-82
2022/10/07 12:05:27;;;;;;;;;;;16.60;58.50;;;;;;5033856;28;19976;-82
2022/10/07 12:07:57;;;;;;;;;;;16.60;58.10;;;;;;5027885;28;19936;-82
2022/10/07 12:10:24;;;;;;;;;;;16.50;59.20;;;;;;5032327;28;19917;-82
2022/10/07 12:12:51;;;;;;;;;;;16.60;58.00;;;;;;5031995;28;19917;-81
2022/10/07 12:15:43;;;;;;;;;;;16.60;58.30;;;;;;5032471;28;19909;-82
2022/10/07 12:18:16;;;;;;;;;;;16.70;58.90;;;;;;5045307;28;19934;-82
2022/10/07 12:20:44;;;;;;;;;;;16.80;57.20;;;;;;5049944;28;19924;-82
2022/10/07 12:23:15;;;;;;;;;;;16.80;57.90;;;;;;5054341;28;19909;-82
2022/10/07 12:25:43;;;;;;;;;;;16.80;58.30;;;;;;5034016;28;19913;-83
2022/10/07 12:28:27;;;;;;;;;;;16.60;58.20;;;;;;5033111;28;19917;-81
2022/10/07 12:30:53;;;;;;;;;;;16.60;57.80;;;;;;5029827;28;19921;-82
2022/10/07 12:33:39;;;;;;;;;;;16.50;58.10;;;;;;5030753;28;20015;-82
2022/10/07 12:36:17;;;;;;;;;;;16.50;58.20;;;;;;5035896;28;19898;-83
2022/10/07 12:38:55;;;;;;;;;;;16.60;58.70;;;;;;5047418;28;19934;-82
2022/10/07 12:41:25;;;;;;;;;;;16.80;58.30;;;;;;5032150;28;19913;-81
2022/10/07 12:43:53;;;;;;;;;;;16.80;58.90;;;;;;5030774;28;19914;-81
2022/10/07 12:46:20;;;;;;;;;;;16.70;58.80;;;;;;5028000;28;19940;-82
2022/10/07 12:48:55;;;;;;;;;;;16.70;58.90;;;;;;5070926;28;19992;-82
2022/10/07 12:51:25;;;;;;;;;;;16.60;58.50;;;;;;5052940;28;20124;-82
2022/10/07 12:53:51;;;;;;;;;;;16.70;58.90;;;;;;5042655;28;19952;-81
2022/10/07 12:56:19;;;;;;;;;;;16.70;59.30;;;;;;5005453;28;19945;-81
2022/10/07 13:01:43;;;;;;;;;;;16.80;58.30;;;;;;4975855;28;19967;-80
2022/10/07 13:04:22;;;;;;;;;;;16.70;58.80;;;;;;4934055;28;20372;-81
2022/10/07 13:06:59;;;;;;;;;;;16.70;59.00;;;;;;4969979;28;20046;-80
2022/10/07 13:09:35;;;;;;;;;;;16.80;59.20;;;;;;4958050;28;20396;-82
2022/10/07 13:12:19;;;;;;;;;;;16.90;58.40;;;;;;4971280;28;20591;-81
2022/10/07 13:14:51;;;;;;;;;;;16.90;58.90;;;;;;4968607;28;19913;-81
2022/10/07 13:17:22;;;;;;;;;;;17.00;58.80;;;;;;4961477;28;19921;-81
2022/10/07 13:20:06;;;;;;;;;;;16.90;58.90;;;;;;4977233;28;20282;-79
2022/10/07 13:22:32;;;;;;;;;;;16.90;58.50;;;;;;4967685;28;19920;-81
2022/10/07 13:24:59;;;;;;;;;;;17.00;59.40;;;;;;4964618;28;19909;-81
2022/10/07 13:27:27;;;;;;;;;;;17.00;58.30;;;;;;4961338;28;19924;-81
2022/10/07 13:29:54;;;;;;;;;;;16.90;59.20;;;;;;4974853;28;20265;-82
2022/10/07 13:32:24;;;;;;;;;;;16.90;59.30;;;;;;4963453;28;19909;-83
2022/10/07 13:34:53;;;;;;;;;;;16.90;59.00;;;;;;4953644;28;20460;-82
2022/10/07 13:37:24;;;;;;;;;;;17.00;60.00;;;;;;4973603;28;19909;-82
2022/10/07 13:39:49;;;;;;;;;;;17.00;59.40;;;;;;4979775;28;20393;-82
2022/10/07 13:42:15;;;;;;;;;;;17.10;59.60;;;;;;4969230;28;19910;-82
2022/10/07 13:44:42;;;;;;;;;;;17.20;58.20;;;;;;4970743;28;19910;-81
2022/10/07 13:47:16;;;;;;;;;;;17.20;56.90;;;;;;4999397;28;20145;-81
2022/10/07 13:49:42;;;;;;;;;;;17.20;57.90;;;;;;5002361;28;19916;-81
2022/10/07 13:52:18;;;;;;;;;;;17.20;57.70;;;;;;4992528;28;19913;-81
2022/10/07 13:54:48;;;;;;;;;;;17.10;58.30;;;;;;5038822;28;19917;-82
2022/10/07 13:57:14;;;;;;;;;;;17.10;58.80;;;;;;5030729;28;19909;-82
2022/10/07 13:59:39;;;;;;;;;;;17.10;58.60;;;;;;5030253;28;19909;-81
2022/10/07 14:02:08;;;;;;;;;;;17.10;58.90;;;;;;5030183;28;19910;-82
2022/10/07 14:04:34;;;;;;;;;;;17.10;58.90;;;;;;5029562;28;20400;-82
2022/10/07 14:07:16;;;;;;;;;;;17.10;58.70;;;;;;5029290;28;19913;-82
2022/10/07 14:09:46;;;;;;;;;;;17.00;58.40;;;;;;5028741;28;19939;-82
2022/10/07 14:12:12;;;;;;;;;;;17.10;58.40;;;;;;4993218;28;19979;-80
2022/10/07 14:14:39;;;;;;;;;;;17.10;58.50;;;;;;4979536;28;20141;-81
2022/10/07 14:17:10;;;;;;;;;;;17.10;57.70;;;;;;4984500;28;19909;-81
2022/10/07 14:19:36;;;;;;;;;;;17.10;58.10;;;;;;4973198;28;19909;-81
2022/10/07 14:22:03;;;;;;;;;;;17.10;59.00;;;;;;4988557;28;19909;-80
2022/10/07 14:24:29;;;;;;;;;;;17.00;60.20;;;;;;4981072;28;19913;-79
2022/10/07 14:26:54;;;;;;;;;;;17.00;59.80;;;;;;4975859;28;20272;-81
2022/10/07 14:29:21;;;;;;;;;;;17.00;60.00;;;;;;4982315;28;20439;-81
2022/10/07 14:37:25;;;;;;;;;;;17.10;58.10;;;;;;4972436;28;19936;-81
2022/10/07 14:39:51;;;;;;;;;;;17.20;57.40;;;;;;4995403;28;19913;-81
2022/10/07 14:42:20;;;;;;;;;;;17.30;57.40;;;;;;5000044;28;20221;-81
2022/10/07 14:44:46;;;;;;;;;;;17.30;56.60;;;;;;4987770;28;19959;-81
2022/10/07 14:47:11;;;;;;;;;;;17.20;56.20;;;;;;5000394;28;20031;-81
2022/10/07 14:49:37;;;;;;;;;;;17.20;55.90;;;;;;4982838;28;20362;-81